createdAt,value
2023-03-03T00:00:10.783Z,61.13
2023-03-03T00:02:58.212Z,64.18
2023-03-03T00:05:47.621Z,58.28
2023-03-03T00:08:42.131Z,59.60
2023-03-03T00:14:07.345Z,58.00
2023-03-03T00:16:53.017Z,62.03
2023-03-03T00:19:45.027Z,58.63
2023-03-03T00:22:40.304Z,60.42
2023-03-03T00:25:52.883Z,64.10
2023-03-03T00:29:07.542Z,66.95
2023-03-03T00:31:52.231Z,66.65
2023-03-03T00:34:41.865Z,63.53
2023-03-03T00:38:01.902Z,63.22
2023-03-03T00:40:54.257Z,69.70
2023-03-03T00:43:40.812Z,62.55
2023-03-03T00:46:33.350Z,74.03
2023-03-03T00:49:31.939Z,76.07
2023-03-03T00:52:33.813Z,73.15
2023-03-03T00:55:19.691Z,73.18
2023-03-03T00:58:01.881Z,69.30
2023-03-03T01:00:49.857Z,67.20
2023-03-03T01:03:46.074Z,71.05
2023-03-03T01:06:27.086Z,67.75
2023-03-03T01:09:17.121Z,67.78
2023-03-03T01:11:59.344Z,69.35
2023-03-03T01:14:55.884Z,72.30
2023-03-03T01:17:41.095Z,70.60
2023-03-03T01:20:24.990Z,67.60
2023-03-03T01:23:11.277Z,65.38
2023-03-03T01:26:05.831Z,61.17
2023-03-03T01:28:52.416Z,64.18
2023-03-03T01:31:36.166Z,63.30
2023-03-03T01:34:23.516Z,66.97
2023-03-03T01:37:15.250Z,60.67
2023-03-03T01:40:02.324Z,57.53
2023-03-03T01:42:57.154Z,63.63
2023-03-03T01:45:59.130Z,64.90
2023-03-03T01:48:53.785Z,66.15
2023-03-03T01:51:51.875Z,64.68
2023-03-03T01:54:47.214Z,73.38
2023-03-03T01:57:33.737Z,78.03
2023-03-03T02:00:20.056Z,73.85
2023-03-03T02:02:58.777Z,80.13
2023-03-03T02:05:36.498Z,79.35
2023-03-03T02:08:22.222Z,83.00
2023-03-03T02:11:00.902Z,81.88
2023-03-03T02:13:36.117Z,85.28
2023-03-03T02:16:24.559Z,86.45
2023-03-03T02:19:16.612Z,93.15
2023-03-03T02:22:02.697Z,94.43
2023-03-03T02:27:38.402Z,85.95
2023-03-03T02:30:22.286Z,96.88
2023-03-03T02:33:08.510Z,111.70
2023-03-03T02:35:57.008Z,104.72
2023-03-03T02:38:49.801Z,107.50
2023-03-03T02:41:51.375Z,104.88
2023-03-03T02:44:33.263Z,85.88
2023-03-03T02:47:11.220Z,78.32
2023-03-03T02:49:51.764Z,84.10
2023-03-03T02:52:35.840Z,85.85
2023-03-03T02:55:16.311Z,94.95
2023-03-03T02:58:00.263Z,89.60
2023-03-03T03:00:38.000Z,87.93
2023-03-03T03:03:16.205Z,87.40
2023-03-03T03:06:03.739Z,83.47
2023-03-03T03:08:55.114Z,84.65
2023-03-03T03:11:36.473Z,86.90
2023-03-03T03:14:18.898Z,86.65
2023-03-03T03:16:58.201Z,77.05
2023-03-03T03:19:43.768Z,88.75
2023-03-03T03:22:19.703Z,83.57
2023-03-03T03:25:01.150Z,75.50
2023-03-03T03:30:34.577Z,71.70
2023-03-03T03:36:04.417Z,70.07
2023-03-03T03:38:52.473Z,77.65
2023-03-03T03:41:33.091Z,85.28
2023-03-03T03:44:11.381Z,83.22
2023-03-03T03:47:10.450Z,96.93
2023-03-03T03:50:05.427Z,91.00
2023-03-03T03:52:44.000Z,89.00
2023-03-03T03:55:30.038Z,91.30
2023-03-03T03:58:07.853Z,86.47
2023-03-03T04:00:49.171Z,87.72
2023-03-03T04:03:36.521Z,87.15
2023-03-03T04:06:29.251Z,93.38
2023-03-03T04:09:10.510Z,90.28
2023-03-03T04:12:00.727Z,90.65
2023-03-03T04:14:49.657Z,93.40
2023-03-03T04:17:31.175Z,91.68
2023-03-03T04:20:13.628Z,90.80
2023-03-03T04:22:57.936Z,91.70
2023-03-03T04:25:42.601Z,93.50
2023-03-03T04:28:30.055Z,93.85
2023-03-03T04:31:19.821Z,95.13
2023-03-03T04:34:14.981Z,92.28
2023-03-03T04:36:51.430Z,99.78
2023-03-03T04:39:40.851Z,95.90
2023-03-03T04:42:24.682Z,100.40
2023-03-03T04:45:09.601Z,97.95
2023-03-03T04:48:01.440Z,96.88
2023-03-03T04:50:43.894Z,97.70
2023-03-03T04:53:40.337Z,93.53
2023-03-03T04:56:26.942Z,90.90
2023-03-03T04:59:10.526Z,91.55
2023-03-03T05:01:53.404Z,93.90
2023-03-03T05:04:31.611Z,91.07
2023-03-03T05:07:26.852Z,92.75
2023-03-03T05:10:21.539Z,91.72
2023-03-03T05:13:06.458Z,92.57
2023-03-03T05:15:50.599Z,96.05
2023-03-03T05:18:35.531Z,96.03
2023-03-03T05:21:14.222Z,92.65
2023-03-03T05:24:13.820Z,92.72
2023-03-03T05:26:52.330Z,88.78
2023-03-03T05:29:31.342Z,95.00
2023-03-03T05:32:20.498Z,92.80
2023-03-03T05:35:04.510Z,93.68
2023-03-03T05:37:59.016Z,92.35
2023-03-03T05:40:43.926Z,98.18
2023-03-03T05:43:33.330Z,95.50
2023-03-03T05:46:14.559Z,105.20
2023-03-03T05:48:58.399Z,108.93
2023-03-03T05:51:48.022Z,107.15
2023-03-03T05:54:48.808Z,109.20
2023-03-03T05:57:29.565Z,111.18
2023-03-03T06:00:19.708Z,119.95
2023-03-03T06:03:06.167Z,114.32
2023-03-03T06:05:49.412Z,119.70
2023-03-03T06:08:32.977Z,115.80
2023-03-03T06:11:16.787Z,119.97
2023-03-03T06:14:10.786Z,122.75
2023-03-03T06:16:56.474Z,122.57
2023-03-03T06:19:48.553Z,127.22
2023-03-03T06:22:30.150Z,123.45
2023-03-03T06:25:13.598Z,134.57
2023-03-03T06:27:55.050Z,133.68
2023-03-03T06:30:42.409Z,135.98
2023-03-03T06:33:17.301Z,137.95
2023-03-03T06:35:58.874Z,130.07
2023-03-03T06:38:34.032Z,136.93
2023-03-03T06:41:24.724Z,141.13
2023-03-03T06:44:02.911Z,158.65
2023-03-03T06:46:48.638Z,157.50
2023-03-03T06:49:29.912Z,164.15
2023-03-03T06:52:17.655Z,165.90
2023-03-03T06:54:56.782Z,158.55
2023-03-03T06:57:49.085Z,175.02
2023-03-03T07:00:35.126Z,159.52
2023-03-03T07:03:29.551Z,153.05
2023-03-03T07:06:29.560Z,155.77
2023-03-03T07:09:11.964Z,148.13
2023-03-03T07:11:50.124Z,159.95
2023-03-03T07:14:34.488Z,138.88
2023-03-03T07:17:24.130Z,128.65
2023-03-03T07:20:21.116Z,142.77
2023-03-03T07:23:22.730Z,119.35
2023-03-03T07:26:33.470Z,109.72
2023-03-03T07:29:27.729Z,103.13
2023-03-03T07:32:20.180Z,98.65
2023-03-03T07:35:02.594Z,88.55
2023-03-03T07:37:54.967Z,82.00
2023-03-03T07:40:54.951Z,69.13
2023-03-03T07:43:40.132Z,61.88
2023-03-03T07:46:41.052Z,62.05
2023-03-03T07:49:41.519Z,61.25
2023-03-03T07:52:34.158Z,60.60
2023-03-03T07:55:32.133Z,57.42
2023-03-03T07:58:49.108Z,59.58
2023-03-03T08:01:48.455Z,54.95
2023-03-03T08:04:47.439Z,56.60
2023-03-03T08:07:23.359Z,53.30
2023-03-03T08:10:48.213Z,55.63
2023-03-03T08:17:04.692Z,60.47
2023-03-03T08:19:50.111Z,54.88
2023-03-03T08:22:46.690Z,53.03
2023-03-03T08:25:30.526Z,49.75
2023-03-03T08:28:23.110Z,45.30
2023-03-03T08:31:16.751Z,42.00
2023-03-03T08:34:11.561Z,42.92
2023-03-03T08:37:00.208Z,49.03
2023-03-03T08:39:43.758Z,48.05
2023-03-03T08:42:29.075Z,49.85
2023-03-03T08:45:24.920Z,48.78
2023-03-03T08:48:14.182Z,45.33
2023-03-03T08:50:49.640Z,46.95
2023-03-03T08:53:33.732Z,45.80
2023-03-03T08:56:17.574Z,46.35
2023-03-03T08:59:03.000Z,45.20
2023-03-03T09:01:36.154Z,49.55
2023-03-03T09:04:27.755Z,47.78
2023-03-03T09:07:17.469Z,46.65
2023-03-03T09:10:08.086Z,42.55
2023-03-03T09:12:51.890Z,39.63
2023-03-03T09:15:42.103Z,37.33
2023-03-03T09:18:38.089Z,35.15
2023-03-03T09:21:37.101Z,29.83
2023-03-03T09:24:26.101Z,26.38
2023-03-03T09:27:08.804Z,25.08
2023-03-03T09:29:56.116Z,20.10
2023-03-03T09:32:55.542Z,16.90
2023-03-03T09:35:45.650Z,14.52
2023-03-03T09:38:31.718Z,13.38
2023-03-03T09:41:42.064Z,12.70
2023-03-03T09:44:42.252Z,14.60
2023-03-03T09:47:52.575Z,14.85
2023-03-03T09:51:16.093Z,14.00
2023-03-03T09:53:58.507Z,16.25
2023-03-03T09:57:02.341Z,15.43
2023-03-03T09:59:53.780Z,16.95
2023-03-03T10:03:10.549Z,15.68
2023-03-03T10:06:10.316Z,15.40
2023-03-03T10:09:11.229Z,14.00
2023-03-03T10:12:19.817Z,13.35
2023-03-03T10:15:16.074Z,13.00
2023-03-03T10:18:18.932Z,12.90
2023-03-03T10:21:20.215Z,13.93
2023-03-03T10:24:09.103Z,14.23
2023-03-03T10:27:35.128Z,15.90
2023-03-03T10:30:54.566Z,16.33
2023-03-03T10:34:19.727Z,14.40
2023-03-03T10:37:10.540Z,16.60
2023-03-03T10:40:17.686Z,16.08
2023-03-03T10:43:09.111Z,14.65
2023-03-03T10:46:15.171Z,14.60
2023-03-03T10:49:16.946Z,15.25
2023-03-03T10:52:32.073Z,15.70
2023-03-03T10:55:28.264Z,14.95
2023-03-03T10:58:16.618Z,14.20
2023-03-03T11:01:05.963Z,15.73
2023-03-03T11:04:25.109Z,14.02
2023-03-03T11:07:15.004Z,14.32
2023-03-03T11:10:20.379Z,15.95
2023-03-03T11:13:19.089Z,18.70
2023-03-03T11:16:18.164Z,17.48
2023-03-03T11:19:08.238Z,16.40
2023-03-03T11:22:10.789Z,17.45
2023-03-03T11:25:20.849Z,17.65
2023-03-03T11:28:33.623Z,18.55
2023-03-03T11:31:38.793Z,17.35
2023-03-03T11:34:43.036Z,17.20
2023-03-03T11:38:02.850Z,17.10
2023-03-03T11:41:23.099Z,17.48
2023-03-03T11:44:31.919Z,16.73
2023-03-03T11:47:30.976Z,16.98
2023-03-03T11:50:42.006Z,16.35
2023-03-03T11:53:38.936Z,16.83
2023-03-03T11:56:58.165Z,16.30
2023-03-03T12:00:00.452Z,16.20
2023-03-03T12:02:47.710Z,15.57
2023-03-03T12:05:43.295Z,15.38
2023-03-03T12:08:51.947Z,16.58
2023-03-03T12:11:46.530Z,16.38
2023-03-03T12:15:08.749Z,15.82
2023-03-03T12:18:09.815Z,15.75
2023-03-03T12:21:29.381Z,15.43
2023-03-03T12:24:56.174Z,15.00
2023-03-03T12:27:51.474Z,16.10
2023-03-03T12:31:00.100Z,13.02
2023-03-03T12:33:57.135Z,13.93
2023-03-03T12:37:00.967Z,12.02
2023-03-03T12:40:04.089Z,11.93
2023-03-03T12:43:02.160Z,12.75
2023-03-03T12:46:09.348Z,11.82
2023-03-03T12:48:57.218Z,11.85
2023-03-03T12:51:55.402Z,11.63
2023-03-03T12:55:07.038Z,11.65
2023-03-03T12:58:11.726Z,10.95
2023-03-03T13:01:02.153Z,11.90
2023-03-03T13:04:07.857Z,10.57
2023-03-03T13:07:03.187Z,11.40
2023-03-03T13:09:58.396Z,10.52
2023-03-03T13:13:07.147Z,10.05
2023-03-03T13:16:17.333Z,10.00
2023-03-03T13:19:10.015Z,13.15
2023-03-03T13:21:58.508Z,14.00
2023-03-03T13:25:01.137Z,14.82
2023-03-03T13:28:01.036Z,12.45
2023-03-03T13:30:46.534Z,14.23
2023-03-03T13:33:31.924Z,14.27
2023-03-03T13:36:52.482Z,15.40
2023-03-03T13:39:43.335Z,14.25
2023-03-03T13:42:54.915Z,14.95
2023-03-03T13:46:05.695Z,15.35
2023-03-03T13:49:10.320Z,16.15
2023-03-03T13:52:20.117Z,18.50
2023-03-03T13:55:16.177Z,16.92
2023-03-03T13:58:26.060Z,16.88
2023-03-03T14:01:54.551Z,17.75
2023-03-03T14:04:53.124Z,16.52
2023-03-03T14:07:45.783Z,17.92
2023-03-03T14:10:48.594Z,18.00
2023-03-03T14:13:48.065Z,37.30
2023-03-03T14:16:55.095Z,75.90
2023-03-03T14:19:49.080Z,25.95
2023-03-03T14:22:56.472Z,19.63
2023-03-03T14:26:08.709Z,16.45
2023-03-03T14:28:56.963Z,16.75
2023-03-03T14:31:43.597Z,17.15
2023-03-03T14:34:41.902Z,16.23
2023-03-03T14:37:46.332Z,17.90
2023-03-03T14:40:36.483Z,15.45
2023-03-03T14:43:26.607Z,15.55
2023-03-03T14:46:34.455Z,15.80
2023-03-03T14:49:39.119Z,15.82
2023-03-03T14:52:42.983Z,18.63
2023-03-03T14:58:29.989Z,15.32
2023-03-03T15:01:41.626Z,16.85
2023-03-03T15:04:40.121Z,15.70
2023-03-03T15:07:36.236Z,17.17
2023-03-03T15:10:38.235Z,14.98
2023-03-03T15:13:42.664Z,17.05
2023-03-03T15:16:41.087Z,18.45
2023-03-03T15:19:45.228Z,19.98
2023-03-03T15:22:46.091Z,17.45
2023-03-03T15:26:09.700Z,18.67
2023-03-03T15:29:02.212Z,20.05
2023-03-03T15:31:53.588Z,24.95
2023-03-03T15:35:13.026Z,24.40
2023-03-03T15:38:51.940Z,25.20
2023-03-03T15:44:55.883Z,20.75
2023-03-03T15:48:22.063Z,20.15
2023-03-03T15:51:25.049Z,21.80
2023-03-03T15:54:45.281Z,21.52
2023-03-03T15:57:44.430Z,20.98
2023-03-03T16:00:49.835Z,21.42
2023-03-03T16:03:40.247Z,23.08
2023-03-03T16:06:50.228Z,20.95
2023-03-03T16:09:57.054Z,20.83
2023-03-03T16:12:46.833Z,21.52
2023-03-03T16:15:41.809Z,22.90
2023-03-03T16:22:21.075Z,22.63
2023-03-03T16:25:09.094Z,20.52
2023-03-03T16:28:19.301Z,24.60
2023-03-03T16:31:36.597Z,23.38
2023-03-03T16:34:47.090Z,24.45
2023-03-03T16:37:50.859Z,22.95
2023-03-03T16:40:39.110Z,21.13
2023-03-03T16:44:00.720Z,23.90
2023-03-03T16:46:50.608Z,23.33
2023-03-03T16:49:49.942Z,24.08
2023-03-03T16:52:40.884Z,25.23
2023-03-03T16:55:33.252Z,25.95
2023-03-03T16:58:44.147Z,25.02
2023-03-03T17:01:33.794Z,23.92
2023-03-03T17:04:34.817Z,25.52
2023-03-03T17:07:41.096Z,28.27
2023-03-03T17:11:10.112Z,28.67
2023-03-03T17:14:03.258Z,28.23
2023-03-03T17:16:57.352Z,28.13
2023-03-03T17:19:58.075Z,28.33
2023-03-03T17:23:04.063Z,27.80
2023-03-03T17:26:09.548Z,28.65
2023-03-03T17:29:20.086Z,27.63
2023-03-03T17:32:24.825Z,26.75
2023-03-03T17:35:26.402Z,30.38
2023-03-03T17:38:17.759Z,29.95
2023-03-03T17:41:08.394Z,30.52
2023-03-03T17:44:20.058Z,27.35
2023-03-03T17:47:18.005Z,29.67
2023-03-03T17:50:33.959Z,28.02
2023-03-03T17:53:42.110Z,29.50
2023-03-03T17:57:12.102Z,29.50
2023-03-03T18:00:06.840Z,30.65
2023-03-03T18:03:08.215Z,30.40
2023-03-03T18:06:18.217Z,33.08
2023-03-03T18:09:23.006Z,29.65
2023-03-03T18:12:46.540Z,31.33
2023-03-03T18:16:05.421Z,31.05
2023-03-03T18:19:16.102Z,32.33
2023-03-03T18:22:06.387Z,32.08
2023-03-03T18:25:04.170Z,39.00
2023-03-03T18:27:49.143Z,41.83
2023-03-03T18:30:33.569Z,45.85
2023-03-03T18:33:23.060Z,44.78
2023-03-03T18:36:37.110Z,51.17
2023-03-03T18:39:41.180Z,49.25
2023-03-03T18:42:41.965Z,47.58
2023-03-03T18:45:28.090Z,46.38
2023-03-03T18:48:17.197Z,45.42
2023-03-03T18:50:56.319Z,44.35
2023-03-03T18:54:17.693Z,43.03
2023-03-03T18:57:30.903Z,43.83
2023-03-03T19:00:28.716Z,45.05
2023-03-03T19:03:39.749Z,47.25
2023-03-03T19:06:39.072Z,33.88
2023-03-03T19:09:45.755Z,46.75
2023-03-03T19:12:51.682Z,43.95
2023-03-03T19:15:44.226Z,45.67
2023-03-03T19:18:32.393Z,42.72
2023-03-03T19:21:40.024Z,42.30
2023-03-03T19:24:41.033Z,43.63
2023-03-03T19:27:54.036Z,43.25
2023-03-03T19:30:56.528Z,43.20
2023-03-03T19:34:14.462Z,42.50
2023-03-03T19:37:15.250Z,44.53
2023-03-03T19:40:19.119Z,42.90
2023-03-03T19:43:19.412Z,42.33
2023-03-03T19:46:26.460Z,38.80
2023-03-03T19:49:27.459Z,44.70
2023-03-03T19:52:37.050Z,44.85
2023-03-03T19:55:36.190Z,51.67
2023-03-03T19:58:27.111Z,53.22
2023-03-03T20:01:24.501Z,66.38
2023-03-03T20:04:22.254Z,70.03
2023-03-03T20:11:21.980Z,51.33
2023-03-03T20:14:37.701Z,49.35
2023-03-03T20:17:36.034Z,53.28
2023-03-03T20:20:43.429Z,54.35
2023-03-03T20:23:38.076Z,57.53
2023-03-03T20:26:36.807Z,56.17
2023-03-03T20:29:44.952Z,55.97
2023-03-03T20:32:57.004Z,61.15
2023-03-03T20:36:19.250Z,58.10
2023-03-03T20:39:24.026Z,54.78
2023-03-03T20:42:52.544Z,64.13
2023-03-03T20:46:11.131Z,64.97
2023-03-03T20:49:21.086Z,72.35
2023-03-03T20:52:17.386Z,76.82
2023-03-03T20:55:16.038Z,68.07
2023-03-03T20:58:32.233Z,63.05
2023-03-03T21:01:25.657Z,64.50
2023-03-03T21:04:30.443Z,70.20
2023-03-03T21:07:28.249Z,74.72
2023-03-03T21:10:29.018Z,65.00
2023-03-03T21:13:47.042Z,62.65
2023-03-03T21:16:33.491Z,60.85
2023-03-03T21:22:25.540Z,58.78
2023-03-03T21:25:12.044Z,62.38
2023-03-03T21:28:12.802Z,61.17
2023-03-03T21:31:16.896Z,56.17
2023-03-03T21:34:22.305Z,60.22
2023-03-03T21:37:07.074Z,57.05
2023-03-03T21:40:20.694Z,62.15
2023-03-03T21:43:01.270Z,62.92
2023-03-03T21:45:49.437Z,59.05
2023-03-03T21:48:32.458Z,60.25
2023-03-03T21:54:07.149Z,63.28
2023-03-03T21:57:07.672Z,64.32
2023-03-03T21:59:57.059Z,61.15
2023-03-03T22:02:46.056Z,60.22
2023-03-03T22:05:41.599Z,60.13
2023-03-03T22:08:33.154Z,67.85
2023-03-03T22:11:23.575Z,63.53
2023-03-03T22:14:08.384Z,63.85
2023-03-03T22:17:07.026Z,64.90
2023-03-03T22:19:48.392Z,49.58
2023-03-03T22:22:46.368Z,61.78
2023-03-03T22:25:31.657Z,66.72
2023-03-03T22:28:23.509Z,68.68
2023-03-03T22:31:23.168Z,76.68
2023-03-03T22:34:10.299Z,71.22
2023-03-03T22:36:56.753Z,68.45
2023-03-03T22:39:49.167Z,73.65
2023-03-03T22:42:35.273Z,83.60
2023-03-03T22:45:24.484Z,82.60
2023-03-03T22:48:12.988Z,72.07
2023-03-03T22:51:03.088Z,71.28
2023-03-03T22:53:53.496Z,74.30
2023-03-03T22:56:49.308Z,79.10
2023-03-03T22:59:37.792Z,79.32
2023-03-03T23:02:19.036Z,69.30
2023-03-03T23:05:10.844Z,70.85
2023-03-03T23:07:59.874Z,67.03
2023-03-03T23:10:49.024Z,66.75
2023-03-03T23:13:30.141Z,70.25
2023-03-03T23:16:10.747Z,79.55
2023-03-03T23:18:56.952Z,82.18
2023-03-03T23:21:47.269Z,84.43
2023-03-03T23:24:33.143Z,99.10
2023-03-03T23:27:22.970Z,91.93
2023-03-03T23:30:10.979Z,81.10
2023-03-03T23:33:01.610Z,72.72
2023-03-03T23:35:42.491Z,78.70
2023-03-03T23:38:24.828Z,87.15
2023-03-03T23:41:22.747Z,76.43
2023-03-03T23:44:15.043Z,82.20
2023-03-03T23:47:04.042Z,83.35
2023-03-03T23:49:50.716Z,74.90
2023-03-03T23:52:40.529Z,68.80
2023-03-03T23:55:31.645Z,64.70
2023-03-03T23:58:15.272Z,71.70
